sensor_id;sensor_type;location;lat;lon;timestamp;P1;durP1;ratioP1;P2;durP2;ratioP2
68475;SDS011;55464;48.266;14.188;2023-02-12T00:02:15;39.33;;;19.45;;
68475;SDS011;55464;48.266;14.188;2023-02-12T00:04:41;35.10;;;18.70;;
68475;SDS011;55464;48.266;14.188;2023-02-12T00:07:07;37.80;;;18.13;;
68475;SDS011;55464;48.266;14.188;2023-02-12T00:09:32;36.13;;;18.85;;
68475;SDS011;55464;48.266;14.188;2023-02-12T00:11:58;41.05;;;19.70;;
68475;SDS011;55464;48.266;14.188;2023-02-12T00:14:24;36.58;;;17.73;;
68475;SDS011;55464;48.266;14.188;2023-02-12T00:16:49;35.17;;;18.20;;
68475;SDS011;55464;48.266;14.188;2023-02-12T00:19:15;36.50;;;18.33;;
68475;SDS011;55464;48.266;14.188;2023-02-12T00:21:41;36.72;;;18.83;;
68475;SDS011;55464;48.266;14.188;2023-02-12T00:24:06;32.92;;;17.73;;
68475;SDS011;55464;48.266;14.188;2023-02-12T00:26:32;33.97;;;17.17;;
68475;SDS011;55464;48.266;14.188;2023-02-12T00:28:59;34.65;;;18.23;;
68475;SDS011;55464;48.266;14.188;2023-02-12T00:31:26;34.90;;;17.23;;
68475;SDS011;55464;48.266;14.188;2023-02-12T00:33:53;37.55;;;18.95;;
68475;SDS011;55464;48.266;14.188;2023-02-12T00:36:20;34.63;;;18.10;;
68475;SDS011;55464;48.266;14.188;2023-02-12T00:38:47;37.45;;;18.10;;
68475;SDS011;55464;48.266;14.188;2023-02-12T00:41:15;32.92;;;17.83;;
68475;SDS011;55464;48.266;14.188;2023-02-12T00:43:41;38.00;;;18.30;;
68475;SDS011;55464;48.266;14.188;2023-02-12T00:46:06;33.55;;;17.15;;
68475;SDS011;55464;48.266;14.188;2023-02-12T00:48:33;34.00;;;18.30;;
68475;SDS011;55464;48.266;14.188;2023-02-12T00:50:59;37.70;;;18.45;;
68475;SDS011;55464;48.266;14.188;2023-02-12T00:53:25;40.55;;;18.73;;
68475;SDS011;55464;48.266;14.188;2023-02-12T00:55:51;39.47;;;20.00;;
68475;SDS011;55464;48.266;14.188;2023-02-12T00:58:16;35.92;;;18.08;;
68475;SDS011;55464;48.266;14.188;2023-02-12T01:00:42;41.25;;;19.45;;
68475;SDS011;55464;48.266;14.188;2023-02-12T01:03:08;43.55;;;19.20;;
68475;SDS011;55464;48.266;14.188;2023-02-12T01:05:34;37.88;;;19.20;;
68475;SDS011;55464;48.266;14.188;2023-02-12T01:08:01;37.28;;;17.88;;
68475;SDS011;55464;48.266;14.188;2023-02-12T01:10:27;39.38;;;19.00;;
68475;SDS011;55464;48.266;14.188;2023-02-12T01:12:53;36.35;;;17.63;;
68475;SDS011;55464;48.266;14.188;2023-02-12T01:15:19;42.78;;;18.58;;
68475;SDS011;55464;48.266;14.188;2023-02-12T01:17:45;45.33;;;18.48;;
68475;SDS011;55464;48.266;14.188;2023-02-12T01:20:13;39.30;;;17.85;;
68475;SDS011;55464;48.266;14.188;2023-02-12T01:22:41;40.78;;;18.65;;
68475;SDS011;55464;48.266;14.188;2023-02-12T01:25:08;37.50;;;18.77;;
68475;SDS011;55464;48.266;14.188;2023-02-12T01:27:34;43.72;;;18.98;;
68475;SDS011;55464;48.266;14.188;2023-02-12T01:29:59;41.92;;;19.67;;
68475;SDS011;55464;48.266;14.188;2023-02-12T01:32:25;37.65;;;18.98;;
68475;SDS011;55464;48.266;14.188;2023-02-12T01:34:51;39.67;;;19.02;;
68475;SDS011;55464;48.266;14.188;2023-02-12T01:37:17;43.47;;;20.73;;
68475;SDS011;55464;48.266;14.188;2023-02-12T01:39:42;41.88;;;19.08;;
68475;SDS011;55464;48.266;14.188;2023-02-12T01:42:11;40.42;;;18.42;;
68475;SDS011;55464;48.266;14.188;2023-02-12T01:44:45;39.85;;;18.60;;
68475;SDS011;55464;48.266;14.188;2023-02-12T01:47:36;37.25;;;18.23;;
68475;SDS011;55464;48.266;14.188;2023-02-12T01:50:02;34.83;;;18.83;;
68475;SDS011;55464;48.266;14.188;2023-02-12T01:52:31;44.20;;;19.70;;
68475;SDS011;55464;48.266;14.188;2023-02-12T01:54:59;40.70;;;19.20;;
68475;SDS011;55464;48.266;14.188;2023-02-12T01:57:27;50.97;;;21.25;;
68475;SDS011;55464;48.266;14.188;2023-02-12T01:59:56;42.55;;;19.33;;
68475;SDS011;55464;48.266;14.188;2023-02-12T02:02:24;38.88;;;19.38;;
68475;SDS011;55464;48.266;14.188;2023-02-12T02:04:51;38.95;;;19.30;;
68475;SDS011;55464;48.266;14.188;2023-02-12T02:07:21;43.05;;;19.65;;
68475;SDS011;55464;48.266;14.188;2023-02-12T02:09:47;44.35;;;19.15;;
68475;SDS011;55464;48.266;14.188;2023-02-12T02:12:14;41.17;;;20.30;;
68475;SDS011;55464;48.266;14.188;2023-02-12T02:14:58;38.25;;;20.30;;
68475;SDS011;55464;48.266;14.188;2023-02-12T02:25:37;41.42;;;20.02;;
68475;SDS011;55464;48.266;14.188;2023-02-12T02:30:37;46.03;;;20.73;;
68475;SDS011;55464;48.266;14.188;2023-02-12T02:33:21;44.40;;;22.02;;
68475;SDS011;55464;48.266;14.188;2023-02-12T02:38:41;41.10;;;20.60;;
68475;SDS011;55464;48.266;14.188;2023-02-12T02:44:18;42.22;;;21.23;;
68475;SDS011;55464;48.266;14.188;2023-02-12T02:46:49;42.22;;;20.80;;
68475;SDS011;55464;48.266;14.188;2023-02-12T02:49:38;48.90;;;21.77;;
68475;SDS011;55464;48.266;14.188;2023-02-12T02:52:10;46.53;;;19.83;;
68475;SDS011;55464;48.266;14.188;2023-02-12T02:54:44;39.47;;;21.35;;
68475;SDS011;55464;48.266;14.188;2023-02-12T03:02:50;41.88;;;21.20;;
68475;SDS011;55464;48.266;14.188;2023-02-12T03:05:41;45.92;;;21.65;;
68475;SDS011;55464;48.266;14.188;2023-02-12T03:10:42;42.75;;;20.70;;
68475;SDS011;55464;48.266;14.188;2023-02-12T03:13:13;46.08;;;22.02;;
68475;SDS011;55464;48.266;14.188;2023-02-12T03:18:45;44.90;;;21.38;;
68475;SDS011;55464;48.266;14.188;2023-02-12T03:21:19;45.22;;;21.80;;
68475;SDS011;55464;48.266;14.188;2023-02-12T03:23:54;50.38;;;22.20;;
68475;SDS011;55464;48.266;14.188;2023-02-12T03:26:31;47.50;;;22.35;;
68475;SDS011;55464;48.266;14.188;2023-02-12T03:29:14;45.30;;;22.10;;
68475;SDS011;55464;48.266;14.188;2023-02-12T03:34:35;49.75;;;23.33;;
68475;SDS011;55464;48.266;14.188;2023-02-12T03:37:16;46.90;;;22.30;;
68475;SDS011;55464;48.266;14.188;2023-02-12T03:42:33;49.40;;;23.35;;
68475;SDS011;55464;48.266;14.188;2023-02-12T03:48:09;54.13;;;24.63;;
68475;SDS011;55464;48.266;14.188;2023-02-12T03:53:16;48.25;;;23.08;;
68475;SDS011;55464;48.266;14.188;2023-02-12T03:55:42;48.30;;;23.10;;
68475;SDS011;55464;48.266;14.188;2023-02-12T03:58:12;46.50;;;22.83;;
68475;SDS011;55464;48.266;14.188;2023-02-12T04:00:43;49.45;;;23.98;;
68475;SDS011;55464;48.266;14.188;2023-02-12T04:03:09;48.17;;;22.98;;
68475;SDS011;55464;48.266;14.188;2023-02-12T04:05:35;48.08;;;22.33;;
68475;SDS011;55464;48.266;14.188;2023-02-12T04:08:01;45.85;;;23.55;;
68475;SDS011;55464;48.266;14.188;2023-02-12T04:16:39;50.95;;;22.88;;
68475;SDS011;55464;48.266;14.188;2023-02-12T04:19:19;46.20;;;23.20;;
68475;SDS011;55464;48.266;14.188;2023-02-12T04:25:20;43.15;;;21.85;;
68475;SDS011;55464;48.266;14.188;2023-02-12T04:27:54;45.05;;;21.95;;
68475;SDS011;55464;48.266;14.188;2023-02-12T04:30:41;46.72;;;22.40;;
68475;SDS011;55464;48.266;14.188;2023-02-12T04:33:14;45.50;;;22.30;;
68475;SDS011;55464;48.266;14.188;2023-02-12T04:35:49;49.88;;;22.73;;
68475;SDS011;55464;48.266;14.188;2023-02-12T04:38:21;46.88;;;22.52;;
68475;SDS011;55464;48.266;14.188;2023-02-12T04:41:05;46.95;;;23.13;;
68475;SDS011;55464;48.266;14.188;2023-02-12T04:43:33;45.77;;;23.30;;
68475;SDS011;55464;48.266;14.188;2023-02-12T04:46:01;42.50;;;22.33;;
68475;SDS011;55464;48.266;14.188;2023-02-12T04:48:28;47.65;;;21.52;;
68475;SDS011;55464;48.266;14.188;2023-02-12T04:50:54;49.83;;;22.98;;
68475;SDS011;55464;48.266;14.188;2023-02-12T04:53:19;45.95;;;23.50;;
68475;SDS011;55464;48.266;14.188;2023-02-12T04:55:45;45.97;;;22.80;;
68475;SDS011;55464;48.266;14.188;2023-02-12T04:58:11;46.00;;;23.15;;
68475;SDS011;55464;48.266;14.188;2023-02-12T05:00:37;48.88;;;23.02;;
68475;SDS011;55464;48.266;14.188;2023-02-12T05:03:03;53.10;;;24.42;;
68475;SDS011;55464;48.266;14.188;2023-02-12T05:05:29;50.38;;;25.65;;
68475;SDS011;55464;48.266;14.188;2023-02-12T05:07:55;51.92;;;25.08;;
68475;SDS011;55464;48.266;14.188;2023-02-12T05:10:21;53.05;;;24.05;;
68475;SDS011;55464;48.266;14.188;2023-02-12T05:12:47;57.10;;;26.73;;
68475;SDS011;55464;48.266;14.188;2023-02-12T05:15:15;56.38;;;24.40;;
68475;SDS011;55464;48.266;14.188;2023-02-12T05:17:41;56.58;;;24.20;;
68475;SDS011;55464;48.266;14.188;2023-02-12T05:20:06;53.55;;;24.58;;
68475;SDS011;55464;48.266;14.188;2023-02-12T05:22:32;54.38;;;24.85;;
68475;SDS011;55464;48.266;14.188;2023-02-12T05:24:58;57.13;;;24.92;;
68475;SDS011;55464;48.266;14.188;2023-02-12T05:27:24;51.78;;;26.35;;
68475;SDS011;55464;48.266;14.188;2023-02-12T05:29:50;51.92;;;21.63;;
68475;SDS011;55464;48.266;14.188;2023-02-12T05:32:15;50.60;;;24.23;;
68475;SDS011;55464;48.266;14.188;2023-02-12T05:34:41;54.67;;;26.27;;
68475;SDS011;55464;48.266;14.188;2023-02-12T05:37:06;51.42;;;24.83;;
68475;SDS011;55464;48.266;14.188;2023-02-12T05:39:32;48.28;;;23.92;;
68475;SDS011;55464;48.266;14.188;2023-02-12T05:41:58;55.15;;;25.85;;
68475;SDS011;55464;48.266;14.188;2023-02-12T05:44:23;58.05;;;24.77;;
68475;SDS011;55464;48.266;14.188;2023-02-12T05:46:49;60.00;;;26.08;;
68475;SDS011;55464;48.266;14.188;2023-02-12T05:49:15;54.90;;;25.95;;
68475;SDS011;55464;48.266;14.188;2023-02-12T05:51:40;55.50;;;26.35;;
68475;SDS011;55464;48.266;14.188;2023-02-12T05:54:06;57.58;;;27.13;;
68475;SDS011;55464;48.266;14.188;2023-02-12T05:56:34;56.10;;;22.65;;
68475;SDS011;55464;48.266;14.188;2023-02-12T05:59:02;48.20;;;23.95;;
68475;SDS011;55464;48.266;14.188;2023-02-12T06:01:33;56.25;;;25.45;;
68475;SDS011;55464;48.266;14.188;2023-02-12T06:04:01;60.45;;;28.05;;
68475;SDS011;55464;48.266;14.188;2023-02-12T06:06:29;62.13;;;25.58;;
68475;SDS011;55464;48.266;14.188;2023-02-12T06:08:55;64.68;;;26.95;;
68475;SDS011;55464;48.266;14.188;2023-02-12T06:11:21;59.40;;;26.33;;
68475;SDS011;55464;48.266;14.188;2023-02-12T06:13:47;68.65;;;28.70;;
68475;SDS011;55464;48.266;14.188;2023-02-12T06:18:45;60.25;;;25.88;;
68475;SDS011;55464;48.266;14.188;2023-02-12T06:21:12;66.50;;;28.75;;
68475;SDS011;55464;48.266;14.188;2023-02-12T06:23:37;66.40;;;27.02;;
68475;SDS011;55464;48.266;14.188;2023-02-12T06:26:03;68.53;;;28.83;;
68475;SDS011;55464;48.266;14.188;2023-02-12T06:28:29;60.40;;;26.75;;
68475;SDS011;55464;48.266;14.188;2023-02-12T06:30:54;64.65;;;26.33;;
68475;SDS011;55464;48.266;14.188;2023-02-12T06:33:20;71.72;;;27.67;;
68475;SDS011;55464;48.266;14.188;2023-02-12T06:35:46;65.25;;;28.67;;
68475;SDS011;55464;48.266;14.188;2023-02-12T06:38:11;68.78;;;31.80;;
68475;SDS011;55464;48.266;14.188;2023-02-12T06:40:37;63.90;;;26.55;;
68475;SDS011;55464;48.266;14.188;2023-02-12T06:43:03;66.15;;;27.48;;
68475;SDS011;55464;48.266;14.188;2023-02-12T06:45:29;56.63;;;26.38;;
68475;SDS011;55464;48.266;14.188;2023-02-12T06:47:54;58.58;;;27.48;;
68475;SDS011;55464;48.266;14.188;2023-02-12T06:50:20;58.78;;;26.27;;
68475;SDS011;55464;48.266;14.188;2023-02-12T06:52:46;60.13;;;26.85;;
68475;SDS011;55464;48.266;14.188;2023-02-12T06:55:11;69.28;;;27.67;;
68475;SDS011;55464;48.266;14.188;2023-02-12T06:57:37;56.15;;;26.02;;
68475;SDS011;55464;48.266;14.188;2023-02-12T07:00:03;70.70;;;28.48;;
68475;SDS011;55464;48.266;14.188;2023-02-12T07:02:29;69.57;;;28.40;;
68475;SDS011;55464;48.266;14.188;2023-02-12T07:04:55;64.65;;;25.38;;
68475;SDS011;55464;48.266;14.188;2023-02-12T07:07:20;64.18;;;26.95;;
68475;SDS011;55464;48.266;14.188;2023-02-12T07:09:46;62.20;;;26.80;;
68475;SDS011;55464;48.266;14.188;2023-02-12T07:12:11;64.72;;;28.92;;
68475;SDS011;55464;48.266;14.188;2023-02-12T07:14:37;72.45;;;29.10;;
68475;SDS011;55464;48.266;14.188;2023-02-12T07:17:03;63.58;;;26.35;;
68475;SDS011;55464;48.266;14.188;2023-02-12T07:19:29;69.70;;;27.25;;
68475;SDS011;55464;48.266;14.188;2023-02-12T07:21:55;70.53;;;29.52;;
68475;SDS011;55464;48.266;14.188;2023-02-12T07:24:21;69.35;;;28.58;;
68475;SDS011;55464;48.266;14.188;2023-02-12T07:26:47;70.35;;;29.67;;
68475;SDS011;55464;48.266;14.188;2023-02-12T07:29:13;73.25;;;30.15;;
68475;SDS011;55464;48.266;14.188;2023-02-12T07:31:39;77.13;;;28.42;;
68475;SDS011;55464;48.266;14.188;2023-02-12T07:34:05;74.47;;;29.75;;
68475;SDS011;55464;48.266;14.188;2023-02-12T07:36:31;72.20;;;29.67;;
68475;SDS011;55464;48.266;14.188;2023-02-12T07:38:57;82.97;;;29.00;;
68475;SDS011;55464;48.266;14.188;2023-02-12T07:43:55;76.00;;;30.08;;
68475;SDS011;55464;48.266;14.188;2023-02-12T07:46:31;75.15;;;29.17;;
68475;SDS011;55464;48.266;14.188;2023-02-12T07:49:00;72.80;;;29.10;;
68475;SDS011;55464;48.266;14.188;2023-02-12T07:51:28;80.57;;;30.30;;
68475;SDS011;55464;48.266;14.188;2023-02-12T07:53:56;73.32;;;28.55;;
68475;SDS011;55464;48.266;14.188;2023-02-12T07:56:23;80.88;;;30.33;;
68475;SDS011;55464;48.266;14.188;2023-02-12T07:58:54;75.93;;;30.38;;
68475;SDS011;55464;48.266;14.188;2023-02-12T08:03:46;72.07;;;29.15;;
68475;SDS011;55464;48.266;14.188;2023-02-12T08:06:14;83.40;;;29.80;;
68475;SDS011;55464;48.266;14.188;2023-02-12T08:08:42;73.45;;;27.63;;
68475;SDS011;55464;48.266;14.188;2023-02-12T08:11:09;74.78;;;28.23;;
68475;SDS011;55464;48.266;14.188;2023-02-12T08:13:36;84.47;;;29.92;;
68475;SDS011;55464;48.266;14.188;2023-02-12T08:16:02;80.93;;;31.10;;
68475;SDS011;55464;48.266;14.188;2023-02-12T08:18:30;77.40;;;31.10;;
68475;SDS011;55464;48.266;14.188;2023-02-12T08:21:00;78.68;;;30.00;;
68475;SDS011;55464;48.266;14.188;2023-02-12T08:23:30;77.05;;;29.10;;
68475;SDS011;55464;48.266;14.188;2023-02-12T08:28:32;76.40;;;29.33;;
68475;SDS011;55464;48.266;14.188;2023-02-12T08:31:02;75.40;;;31.30;;
68475;SDS011;55464;48.266;14.188;2023-02-12T08:33:29;89.72;;;30.88;;
68475;SDS011;55464;48.266;14.188;2023-02-12T08:38:30;93.28;;;33.05;;
68475;SDS011;55464;48.266;14.188;2023-02-12T08:41:01;80.63;;;30.70;;
68475;SDS011;55464;48.266;14.188;2023-02-12T08:43:32;89.45;;;31.08;;
68475;SDS011;55464;48.266;14.188;2023-02-12T08:46:05;93.60;;;34.97;;
68475;SDS011;55464;48.266;14.188;2023-02-12T08:48:32;81.00;;;30.13;;
68475;SDS011;55464;48.266;14.188;2023-02-12T08:53:38;87.03;;;30.58;;
68475;SDS011;55464;48.266;14.188;2023-02-12T08:56:05;81.93;;;31.50;;
68475;SDS011;55464;48.266;14.188;2023-02-12T08:58:32;84.68;;;30.90;;
68475;SDS011;55464;48.266;14.188;2023-02-12T09:00:58;87.15;;;31.50;;
68475;SDS011;55464;48.266;14.188;2023-02-12T09:03:24;88.10;;;31.45;;
68475;SDS011;55464;48.266;14.188;2023-02-12T09:05:50;88.60;;;32.20;;
68475;SDS011;55464;48.266;14.188;2023-02-12T09:08:16;91.63;;;33.20;;
68475;SDS011;55464;48.266;14.188;2023-02-12T09:10:42;87.55;;;31.08;;
68475;SDS011;55464;48.266;14.188;2023-02-12T09:13:09;90.78;;;33.10;;
68475;SDS011;55464;48.266;14.188;2023-02-12T09:15:36;88.85;;;32.35;;
68475;SDS011;55464;48.266;14.188;2023-02-12T09:18:03;87.93;;;31.13;;
68475;SDS011;55464;48.266;14.188;2023-02-12T09:20:29;80.85;;;30.50;;
68475;SDS011;55464;48.266;14.188;2023-02-12T09:22:56;79.88;;;29.05;;
68475;SDS011;55464;48.266;14.188;2023-02-12T09:25:23;83.95;;;31.83;;
68475;SDS011;55464;48.266;14.188;2023-02-12T09:27:49;76.75;;;29.48;;
68475;SDS011;55464;48.266;14.188;2023-02-12T09:30:14;81.85;;;29.98;;
68475;SDS011;55464;48.266;14.188;2023-02-12T09:32:40;81.38;;;29.73;;
68475;SDS011;55464;48.266;14.188;2023-02-12T09:35:06;78.95;;;29.50;;
68475;SDS011;55464;48.266;14.188;2023-02-12T09:37:32;81.00;;;29.42;;
68475;SDS011;55464;48.266;14.188;2023-02-12T09:39:58;79.60;;;31.90;;
68475;SDS011;55464;48.266;14.188;2023-02-12T09:44:55;85.18;;;30.58;;
68475;SDS011;55464;48.266;14.188;2023-02-12T09:50:50;75.38;;;28.58;;
68475;SDS011;55464;48.266;14.188;2023-02-12T09:55:45;74.10;;;27.52;;
68475;SDS011;55464;48.266;14.188;2023-02-12T09:58:13;74.25;;;28.35;;
68475;SDS011;55464;48.266;14.188;2023-02-12T10:00:53;74.63;;;28.40;;
68475;SDS011;55464;48.266;14.188;2023-02-12T10:03:19;77.70;;;29.60;;
68475;SDS011;55464;48.266;14.188;2023-02-12T10:22:07;66.28;;;25.90;;
68475;SDS011;55464;48.266;14.188;2023-02-12T10:24:57;70.80;;;28.08;;
68475;SDS011;55464;48.266;14.188;2023-02-12T10:27:39;58.78;;;25.17;;
68475;SDS011;55464;48.266;14.188;2023-02-12T10:30:20;69.63;;;26.23;;
68475;SDS011;55464;48.266;14.188;2023-02-12T10:32:50;70.70;;;27.48;;
68475;SDS011;55464;48.266;14.188;2023-02-12T10:35:20;73.63;;;26.30;;
68475;SDS011;55464;48.266;14.188;2023-02-12T10:37:49;67.95;;;26.08;;
68475;SDS011;55464;48.266;14.188;2023-02-12T10:42:56;66.63;;;27.33;;
68475;SDS011;55464;48.266;14.188;2023-02-12T10:45:28;61.15;;;25.30;;
68475;SDS011;55464;48.266;14.188;2023-02-12T10:53:08;61.55;;;24.38;;
68475;SDS011;55464;48.266;14.188;2023-02-12T10:55:41;66.88;;;25.75;;
68475;SDS011;55464;48.266;14.188;2023-02-12T10:58:16;64.63;;;26.35;;
68475;SDS011;55464;48.266;14.188;2023-02-12T11:00:44;59.90;;;24.98;;
68475;SDS011;55464;48.266;14.188;2023-02-12T11:05:36;60.25;;;24.75;;
68475;SDS011;55464;48.266;14.188;2023-02-12T11:08:06;60.75;;;24.60;;
68475;SDS011;55464;48.266;14.188;2023-02-12T11:10:50;60.83;;;25.58;;
68475;SDS011;55464;48.266;14.188;2023-02-12T11:13:26;58.22;;;25.60;;
68475;SDS011;55464;48.266;14.188;2023-02-12T11:15:52;62.15;;;25.15;;
68475;SDS011;55464;48.266;14.188;2023-02-12T11:18:21;58.25;;;24.40;;
68475;SDS011;55464;48.266;14.188;2023-02-12T11:20:52;57.08;;;24.90;;
68475;SDS011;55464;48.266;14.188;2023-02-12T11:25:58;59.33;;;23.80;;
68475;SDS011;55464;48.266;14.188;2023-02-12T11:28:26;53.73;;;23.17;;
68475;SDS011;55464;48.266;14.188;2023-02-12T11:30:57;52.03;;;22.67;;
68475;SDS011;55464;48.266;14.188;2023-02-12T11:35:54;55.22;;;24.42;;
68475;SDS011;55464;48.266;14.188;2023-02-12T11:38:28;53.00;;;22.50;;
68475;SDS011;55464;48.266;14.188;2023-02-12T11:40:58;49.35;;;22.08;;
68475;SDS011;55464;48.266;14.188;2023-02-12T11:43:27;47.80;;;21.35;;
68475;SDS011;55464;48.266;14.188;2023-02-12T11:45:55;51.22;;;22.17;;
68475;SDS011;55464;48.266;14.188;2023-02-12T11:48:31;49.10;;;22.17;;
68475;SDS011;55464;48.266;14.188;2023-02-12T11:51:01;51.83;;;22.27;;
68475;SDS011;55464;48.266;14.188;2023-02-12T11:53:32;52.00;;;21.50;;
68475;SDS011;55464;48.266;14.188;2023-02-12T11:56:11;48.17;;;21.77;;
68475;SDS011;55464;48.266;14.188;2023-02-12T11:58:38;45.70;;;21.55;;
68475;SDS011;55464;48.266;14.188;2023-02-12T12:01:07;50.95;;;21.08;;
68475;SDS011;55464;48.266;14.188;2023-02-12T12:06:32;51.15;;;21.90;;
68475;SDS011;55464;48.266;14.188;2023-02-12T12:14:25;42.63;;;19.67;;
68475;SDS011;55464;48.266;14.188;2023-02-12T12:17:36;47.28;;;21.00;;
68475;SDS011;55464;48.266;14.188;2023-02-12T12:20:26;43.13;;;19.17;;
68475;SDS011;55464;48.266;14.188;2023-02-12T12:28:19;49.90;;;20.77;;
68475;SDS011;55464;48.266;14.188;2023-02-12T12:42:06;44.25;;;20.48;;
68475;SDS011;55464;48.266;14.188;2023-02-12T12:47:29;46.05;;;19.60;;
68475;SDS011;55464;48.266;14.188;2023-02-12T12:50:13;40.10;;;19.05;;
68475;SDS011;55464;48.266;14.188;2023-02-12T13:09:28;36.55;;;17.30;;
68475;SDS011;55464;48.266;14.188;2023-02-12T13:17:48;28.10;;;13.15;;
68475;SDS011;55464;48.266;14.188;2023-02-12T13:22:58;34.10;;;15.65;;
68475;SDS011;55464;48.266;14.188;2023-02-12T13:27:58;34.05;;;14.80;;
68475;SDS011;55464;48.266;14.188;2023-02-12T13:30:28;29.60;;;14.82;;
68475;SDS011;55464;48.266;14.188;2023-02-12T13:35:42;32.80;;;16.13;;
68475;SDS011;55464;48.266;14.188;2023-02-12T13:38:14;31.13;;;16.00;;
68475;SDS011;55464;48.266;14.188;2023-02-12T13:40:53;35.38;;;15.38;;
68475;SDS011;55464;48.266;14.188;2023-02-12T13:46:12;32.22;;;14.77;;
68475;SDS011;55464;48.266;14.188;2023-02-12T13:57:12;33.97;;;15.40;;
68475;SDS011;55464;48.266;14.188;2023-02-12T13:59:44;30.95;;;13.57;;
68475;SDS011;55464;48.266;14.188;2023-02-12T14:07:08;31.58;;;14.68;;
68475;SDS011;55464;48.266;14.188;2023-02-12T14:14:52;36.17;;;16.05;;
68475;SDS011;55464;48.266;14.188;2023-02-12T14:19:56;37.80;;;16.13;;
68475;SDS011;55464;48.266;14.188;2023-02-12T14:27:46;32.28;;;15.50;;
68475;SDS011;55464;48.266;14.188;2023-02-12T14:30:23;36.80;;;16.52;;
68475;SDS011;55464;48.266;14.188;2023-02-12T14:33:26;35.22;;;16.05;;
68475;SDS011;55464;48.266;14.188;2023-02-12T14:35:47;33.00;;;15.40;;
68475;SDS011;55464;48.266;14.188;2023-02-12T14:49:25;31.35;;;14.63;;
68475;SDS011;55464;48.266;14.188;2023-02-12T14:54:29;24.75;;;12.77;;
68475;SDS011;55464;48.266;14.188;2023-02-12T14:57:24;25.70;;;12.47;;
68475;SDS011;55464;48.266;14.188;2023-02-12T15:02:43;31.38;;;12.80;;
68475;SDS011;55464;48.266;14.188;2023-02-12T15:05:18;29.88;;;15.32;;
68475;SDS011;55464;48.266;14.188;2023-02-12T15:10:23;33.20;;;14.50;;
68475;SDS011;55464;48.266;14.188;2023-02-12T15:15:58;30.40;;;13.75;;
68475;SDS011;55464;48.266;14.188;2023-02-12T15:18:47;31.85;;;14.70;;
68475;SDS011;55464;48.266;14.188;2023-02-12T15:21:19;34.45;;;14.25;;
68475;SDS011;55464;48.266;14.188;2023-02-12T15:26:43;31.25;;;13.55;;
68475;SDS011;55464;48.266;14.188;2023-02-12T15:29:20;30.40;;;13.15;;
68475;SDS011;55464;48.266;14.188;2023-02-12T15:31:56;36.15;;;16.70;;
68475;SDS011;55464;48.266;14.188;2023-02-12T15:34:29;35.25;;;16.52;;
68475;SDS011;55464;48.266;14.188;2023-02-12T15:37:02;35.33;;;15.05;;
68475;SDS011;55464;48.266;14.188;2023-02-12T15:39:39;29.55;;;14.23;;
68475;SDS011;55464;48.266;14.188;2023-02-12T15:42:23;33.33;;;15.02;;
68475;SDS011;55464;48.266;14.188;2023-02-12T15:44:49;34.58;;;15.98;;
68475;SDS011;55464;48.266;14.188;2023-02-12T15:47:15;35.47;;;15.93;;
68475;SDS011;55464;48.266;14.188;2023-02-12T15:49:41;33.42;;;15.35;;
68475;SDS011;55464;48.266;14.188;2023-02-12T15:52:31;32.97;;;15.15;;
68475;SDS011;55464;48.266;14.188;2023-02-12T15:55:02;35.67;;;16.02;;
68475;SDS011;55464;48.266;14.188;2023-02-12T15:57:29;32.13;;;16.10;;
68475;SDS011;55464;48.266;14.188;2023-02-12T15:59:58;35.05;;;16.65;;
68475;SDS011;55464;48.266;14.188;2023-02-12T16:02:53;36.28;;;16.42;;
68475;SDS011;55464;48.266;14.188;2023-02-12T16:05:18;34.40;;;16.00;;
68475;SDS011;55464;48.266;14.188;2023-02-12T16:07:46;36.25;;;17.73;;
68475;SDS011;55464;48.266;14.188;2023-02-12T16:12:42;33.95;;;15.60;;
68475;SDS011;55464;48.266;14.188;2023-02-12T16:15:22;30.00;;;14.80;;
68475;SDS011;55464;48.266;14.188;2023-02-12T16:17:50;36.63;;;16.75;;
68475;SDS011;55464;48.266;14.188;2023-02-12T16:22:46;35.53;;;15.60;;
68475;SDS011;55464;48.266;14.188;2023-02-12T16:32:55;37.42;;;16.92;;
68475;SDS011;55464;48.266;14.188;2023-02-12T16:35:22;36.67;;;15.90;;
68475;SDS011;55464;48.266;14.188;2023-02-12T16:37:51;42.37;;;17.53;;
68475;SDS011;55464;48.266;14.188;2023-02-12T16:47:51;43.85;;;18.50;;
68475;SDS011;55464;48.266;14.188;2023-02-12T16:50:37;36.88;;;16.85;;
68475;SDS011;55464;48.266;14.188;2023-02-12T16:53:25;33.45;;;16.92;;
68475;SDS011;55464;48.266;14.188;2023-02-12T16:55:58;37.03;;;16.25;;
68475;SDS011;55464;48.266;14.188;2023-02-12T16:58:25;38.67;;;16.33;;
68475;SDS011;55464;48.266;14.188;2023-02-12T17:00:52;39.53;;;17.77;;
68475;SDS011;55464;48.266;14.188;2023-02-12T17:03:20;39.25;;;16.20;;
68475;SDS011;55464;48.266;14.188;2023-02-12T17:05:46;41.40;;;17.63;;
68475;SDS011;55464;48.266;14.188;2023-02-12T17:08:14;44.05;;;18.13;;
68475;SDS011;55464;48.266;14.188;2023-02-12T17:10:41;41.90;;;16.90;;
68475;SDS011;55464;48.266;14.188;2023-02-12T17:13:08;39.45;;;17.67;;
68475;SDS011;55464;48.266;14.188;2023-02-12T17:15:44;41.58;;;17.90;;
68475;SDS011;55464;48.266;14.188;2023-02-12T17:18:16;40.63;;;17.50;;
68475;SDS011;55464;48.266;14.188;2023-02-12T17:20:43;41.88;;;18.55;;
68475;SDS011;55464;48.266;14.188;2023-02-12T17:23:14;43.78;;;17.50;;
68475;SDS011;55464;48.266;14.188;2023-02-12T17:25:40;39.92;;;16.52;;
68475;SDS011;55464;48.266;14.188;2023-02-12T17:28:06;44.50;;;17.90;;
68475;SDS011;55464;48.266;14.188;2023-02-12T17:30:32;39.50;;;17.60;;
68475;SDS011;55464;48.266;14.188;2023-02-12T17:32:58;38.85;;;16.60;;
68475;SDS011;55464;48.266;14.188;2023-02-12T17:35:24;44.47;;;18.13;;
68475;SDS011;55464;48.266;14.188;2023-02-12T17:37:50;39.25;;;17.95;;
68475;SDS011;55464;48.266;14.188;2023-02-12T17:40:16;38.35;;;16.20;;
68475;SDS011;55464;48.266;14.188;2023-02-12T17:42:42;39.15;;;16.98;;
68475;SDS011;55464;48.266;14.188;2023-02-12T17:45:07;44.60;;;17.75;;
68475;SDS011;55464;48.266;14.188;2023-02-12T17:47:33;43.53;;;17.30;;
68475;SDS011;55464;48.266;14.188;2023-02-12T17:52:35;38.80;;;16.25;;
68475;SDS011;55464;48.266;14.188;2023-02-12T17:55:01;38.55;;;15.95;;
68475;SDS011;55464;48.266;14.188;2023-02-12T17:57:26;42.13;;;17.27;;
68475;SDS011;55464;48.266;14.188;2023-02-12T17:59:52;41.55;;;16.90;;
68475;SDS011;55464;48.266;14.188;2023-02-12T18:02:18;42.55;;;17.10;;
68475;SDS011;55464;48.266;14.188;2023-02-12T18:04:43;39.80;;;16.63;;
68475;SDS011;55464;48.266;14.188;2023-02-12T18:07:09;39.05;;;16.17;;
68475;SDS011;55464;48.266;14.188;2023-02-12T18:09:35;46.38;;;18.38;;
68475;SDS011;55464;48.266;14.188;2023-02-12T18:12:02;40.50;;;16.48;;
68475;SDS011;55464;48.266;14.188;2023-02-12T18:14:28;41.45;;;16.40;;
68475;SDS011;55464;48.266;14.188;2023-02-12T18:16:53;43.17;;;16.95;;
68475;SDS011;55464;48.266;14.188;2023-02-12T18:19:19;42.03;;;18.08;;
68475;SDS011;55464;48.266;14.188;2023-02-12T18:21:45;40.63;;;16.80;;